sensor_id;sensor_type;location;lat;lon;timestamp;pressure;altitude;pressure_sealevel;temperature;humidity
58622;BME280;44389;51.578;5.456;2022-12-24T00:00:18;100544.25;;;8.67;100.00
58622;BME280;44389;51.578;5.456;2022-12-24T00:02:43;100544.19;;;8.64;100.00
58622;BME280;44389;51.578;5.456;2022-12-24T00:05:09;100552.69;;;8.63;100.00
58622;BME280;44389;51.578;5.456;2022-12-24T00:07:34;100547.44;;;8.60;100.00
58622;BME280;44389;51.578;5.456;2022-12-24T00:10:00;100552.50;;;8.56;100.00
58622;BME280;44389;51.578;5.456;2022-12-24T00:12:25;100552.28;;;8.50;100.00
58622;BME280;44389;51.578;5.456;2022-12-24T00:14:50;100556.59;;;8.51;100.00
58622;BME280;44389;51.578;5.456;2022-12-24T00:17:16;100554.91;;;8.52;100.00
58622;BME280;44389;51.578;5.456;2022-12-24T00:19:41;100560.03;;;8.52;100.00
58622;BME280;44389;51.578;5.456;2022-12-24T00:22:07;100567.69;;;8.50;100.00
58622;BME280;44389;51.578;5.456;2022-12-24T00:24:32;100559.09;;;8.48;100.00
58622;BME280;44389;51.578;5.456;2022-12-24T00:26:58;100565.13;;;8.50;100.00
58622;BME280;44389;51.578;5.456;2022-12-24T00:29:23;100570.25;;;8.50;100.00
58622;BME280;44389;51.578;5.456;2022-12-24T00:31:48;100571.00;;;8.46;100.00
58622;BME280;44389;51.578;5.456;2022-12-24T00:34:14;100571.72;;;8.44;100.00
58622;BME280;44389;51.578;5.456;2022-12-24T00:36:39;100581.25;;;8.46;100.00
58622;BME280;44389;51.578;5.456;2022-12-24T00:39:04;100588.00;;;8.44;100.00
58622;BME280;44389;51.578;5.456;2022-12-24T00:41:29;100581.31;;;8.48;100.00
58622;BME280;44389;51.578;5.456;2022-12-24T00:44:02;100590.81;;;8.50;100.00
58622;BME280;44389;51.578;5.456;2022-12-24T00:46:31;100582.19;;;8.48;100.00
58622;BME280;44389;51.578;5.456;2022-12-24T00:48:56;100592.47;;;8.48;100.00
58622;BME280;44389;51.578;5.456;2022-12-24T00:51:22;100593.97;;;8.43;100.00
58622;BME280;44389;51.578;5.456;2022-12-24T00:53:48;100599.31;;;8.49;100.00
58622;BME280;44389;51.578;5.456;2022-12-24T00:56:14;100606.22;;;8.50;100.00
58622;BME280;44389;51.578;5.456;2022-12-24T00:58:39;100616.44;;;8.49;100.00
58622;BME280;44389;51.578;5.456;2022-12-24T01:01:05;100618.19;;;8.50;100.00
58622;BME280;44389;51.578;5.456;2022-12-24T01:03:31;100616.44;;;8.49;100.00
58622;BME280;44389;51.578;5.456;2022-12-24T01:06:08;100630.16;;;8.49;100.00
58622;BME280;44389;51.578;5.456;2022-12-24T01:08:34;100626.69;;;8.47;100.00
58622;BME280;44389;51.578;5.456;2022-12-24T01:11:01;100629.34;;;8.50;100.00
58622;BME280;44389;51.578;5.456;2022-12-24T01:13:27;100629.47;;;8.53;100.00
58622;BME280;44389;51.578;5.456;2022-12-24T01:15:53;100626.75;;;8.50;100.00
58622;BME280;44389;51.578;5.456;2022-12-24T01:18:18;100635.19;;;8.46;100.00
58622;BME280;44389;51.578;5.456;2022-12-24T01:20:44;100635.97;;;8.45;100.00
58622;BME280;44389;51.578;5.456;2022-12-24T01:23:09;100636.59;;;8.38;100.00
58622;BME280;44389;51.578;5.456;2022-12-24T01:25:37;100643.41;;;8.37;100.00
58622;BME280;44389;51.578;5.456;2022-12-24T01:28:03;100642.41;;;8.34;100.00
58622;BME280;44389;51.578;5.456;2022-12-24T01:30:28;100647.38;;;8.28;100.00
58622;BME280;44389;51.578;5.456;2022-12-24T01:32:53;100656.66;;;8.24;100.00
58622;BME280;44389;51.578;5.456;2022-12-24T01:35:18;100657.28;;;8.18;100.00
58622;BME280;44389;51.578;5.456;2022-12-24T01:37:44;100666.69;;;8.18;100.00
58622;BME280;44389;51.578;5.456;2022-12-24T01:40:14;100672.63;;;8.17;100.00
58622;BME280;44389;51.578;5.456;2022-12-24T01:42:58;100664.06;;;8.16;100.00
58622;BME280;44389;51.578;5.456;2022-12-24T01:45:48;100669.84;;;8.11;100.00
58622;BME280;44389;51.578;5.456;2022-12-24T01:50:49;100672.34;;;8.09;100.00
58622;BME280;44389;51.578;5.456;2022-12-24T01:53:17;100663.75;;;8.07;100.00
58622;BME280;44389;51.578;5.456;2022-12-24T01:55:44;100676.63;;;8.08;100.00
58622;BME280;44389;51.578;5.456;2022-12-24T01:58:12;100675.88;;;8.11;100.00
58622;BME280;44389;51.578;5.456;2022-12-24T02:00:39;100679.47;;;8.16;100.00
58622;BME280;44389;51.578;5.456;2022-12-24T02:03:04;100683.09;;;8.21;100.00
58622;BME280;44389;51.578;5.456;2022-12-24T02:05:39;100691.69;;;8.23;100.00
58622;BME280;44389;51.578;5.456;2022-12-24T02:08:07;100698.63;;;8.26;100.00
58622;BME280;44389;51.578;5.456;2022-12-24T02:10:33;100697.81;;;8.27;100.00
58622;BME280;44389;51.578;5.456;2022-12-24T02:12:59;100703.94;;;8.31;100.00
58622;BME280;44389;51.578;5.456;2022-12-24T02:15:28;100701.44;;;8.32;100.00
58622;BME280;44389;51.578;5.456;2022-12-24T02:18:07;100709.19;;;8.34;100.00
58622;BME280;44389;51.578;5.456;2022-12-24T02:21:04;100716.06;;;8.35;100.00
58622;BME280;44389;51.578;5.456;2022-12-24T02:23:48;100705.03;;;8.37;100.00
58622;BME280;44389;51.578;5.456;2022-12-24T02:32:09;100706.00;;;8.39;100.00
58622;BME280;44389;51.578;5.456;2022-12-24T02:34:42;100709.31;;;8.37;100.00
58622;BME280;44389;51.578;5.456;2022-12-24T02:37:25;100705.09;;;8.39;100.00
58622;BME280;44389;51.578;5.456;2022-12-24T02:40:02;100716.31;;;8.41;100.00
58622;BME280;44389;51.578;5.456;2022-12-24T02:42:35;100711.28;;;8.44;100.00
58622;BME280;44389;51.578;5.456;2022-12-24T02:45:49;100705.41;;;8.47;100.00
58622;BME280;44389;51.578;5.456;2022-12-24T02:47:55;100727.75;;;8.49;100.00
58622;BME280;44389;51.578;5.456;2022-12-24T02:50:20;100720.88;;;8.48;100.00
58622;BME280;44389;51.578;5.456;2022-12-24T02:52:47;100714.81;;;8.46;100.00
58622;BME280;44389;51.578;5.456;2022-12-24T02:55:28;100728.44;;;8.45;100.00
58622;BME280;44389;51.578;5.456;2022-12-24T03:12:20;100725.13;;;8.48;100.00
58622;BME280;44389;51.578;5.456;2022-12-24T03:14:48;100731.16;;;8.48;100.00
58622;BME280;44389;51.578;5.456;2022-12-24T03:17:14;100728.50;;;8.47;100.00
58622;BME280;44389;51.578;5.456;2022-12-24T03:19:41;100737.94;;;8.46;100.00
58622;BME280;44389;51.578;5.456;2022-12-24T03:22:09;100737.13;;;8.47;100.00
58622;BME280;44389;51.578;5.456;2022-12-24T03:24:34;100725.09;;;8.46;100.00
58622;BME280;44389;51.578;5.456;2022-12-24T03:27:00;100733.47;;;8.42;100.00
58622;BME280;44389;51.578;5.456;2022-12-24T03:29:26;100728.19;;;8.39;100.00
58622;BME280;44389;51.578;5.456;2022-12-24T03:31:52;100724.81;;;8.40;100.00
58622;BME280;44389;51.578;5.456;2022-12-24T03:34:22;100735.22;;;8.43;100.00
58622;BME280;44389;51.578;5.456;2022-12-24T03:36:48;100734.28;;;8.41;100.00
58622;BME280;44389;51.578;5.456;2022-12-24T03:39:14;100739.63;;;8.46;100.00
58622;BME280;44389;51.578;5.456;2022-12-24T03:41:39;100742.47;;;8.53;100.00
58622;BME280;44389;51.578;5.456;2022-12-24T03:44:04;100745.16;;;8.56;100.00
58622;BME280;44389;51.578;5.456;2022-12-24T03:46:30;100744.44;;;8.61;100.00
58622;BME280;44389;51.578;5.456;2022-12-24T03:48:55;100742.91;;;8.66;100.00
58622;BME280;44389;51.578;5.456;2022-12-24T03:51:23;100749.91;;;8.70;100.00
58622;BME280;44389;51.578;5.456;2022-12-24T03:53:51;100756.91;;;8.74;100.00
58622;BME280;44389;51.578;5.456;2022-12-24T03:56:16;100749.31;;;8.77;100.00
58622;BME280;44389;51.578;5.456;2022-12-24T03:58:42;100743.41;;;8.80;100.00
58622;BME280;44389;51.578;5.456;2022-12-24T04:01:07;100758.09;;;8.84;100.00
58622;BME280;44389;51.578;5.456;2022-12-24T04:03:32;100755.56;;;8.85;100.00
58622;BME280;44389;51.578;5.456;2022-12-24T04:06:03;100753.81;;;8.84;100.00
58622;BME280;44389;51.578;5.456;2022-12-24T04:08:29;100752.09;;;8.83;100.00
58622;BME280;44389;51.578;5.456;2022-12-24T04:10:54;100756.50;;;8.87;100.00
58622;BME280;44389;51.578;5.456;2022-12-24T04:13:19;100753.06;;;8.87;100.00
58622;BME280;44389;51.578;5.456;2022-12-24T04:15:45;100763.47;;;8.90;100.00
58622;BME280;44389;51.578;5.456;2022-12-24T04:18:10;100765.97;;;8.88;100.00
58622;BME280;44389;51.578;5.456;2022-12-24T04:20:35;100768.38;;;8.84;100.00
58622;BME280;44389;51.578;5.456;2022-12-24T04:23:00;100772.53;;;8.80;100.00
58622;BME280;44389;51.578;5.456;2022-12-24T04:25:26;100767.44;;;8.82;100.00
58622;BME280;44389;51.578;5.456;2022-12-24T04:27:51;100772.53;;;8.80;100.00
58622;BME280;44389;51.578;5.456;2022-12-24T04:30:16;100777.66;;;8.80;100.00
58622;BME280;44389;51.578;5.456;2022-12-24T04:32:42;100768.28;;;8.81;100.00
58622;BME280;44389;51.578;5.456;2022-12-24T04:35:07;100777.66;;;8.80;100.00
58622;BME280;44389;51.578;5.456;2022-12-24T04:37:33;100776.72;;;8.77;100.00
58622;BME280;44389;51.578;5.456;2022-12-24T04:39:58;100772.34;;;8.74;100.00
58622;BME280;44389;51.578;5.456;2022-12-24T04:42:23;100775.88;;;8.78;100.00
58622;BME280;44389;51.578;5.456;2022-12-24T04:44:49;100780.19;;;8.79;100.00
58622;BME280;44389;51.578;5.456;2022-12-24T04:47:14;100781.91;;;8.78;100.00
58622;BME280;44389;51.578;5.456;2022-12-24T04:49:39;100784.34;;;8.75;100.00
58622;BME280;44389;51.578;5.456;2022-12-24T04:52:05;100780.72;;;8.70;100.00
58622;BME280;44389;51.578;5.456;2022-12-24T04:54:30;100786.72;;;8.69;100.00
58622;BME280;44389;51.578;5.456;2022-12-24T04:56:55;100788.38;;;8.68;100.00
58622;BME280;44389;51.578;5.456;2022-12-24T04:59:20;100794.28;;;8.66;100.00
58622;BME280;44389;51.578;5.456;2022-12-24T05:01:46;100797.66;;;8.65;100.00
58622;BME280;44389;51.578;5.456;2022-12-24T05:04:11;100799.56;;;8.69;100.00
58622;BME280;44389;51.578;5.456;2022-12-24T05:06:36;100789.28;;;8.69;100.00
58622;BME280;44389;51.578;5.456;2022-12-24T05:09:02;100791.94;;;8.72;100.00
58622;BME280;44389;51.578;5.456;2022-12-24T05:11:27;100796.28;;;8.73;100.00
58622;BME280;44389;51.578;5.456;2022-12-24T05:13:53;100797.91;;;8.71;100.00
58622;BME280;44389;51.578;5.456;2022-12-24T05:16:20;100796.16;;;8.70;100.00
58622;BME280;44389;51.578;5.456;2022-12-24T05:18:46;100796.00;;;8.65;100.00
58622;BME280;44389;51.578;5.456;2022-12-24T05:21:19;100808.72;;;8.62;100.00
58622;BME280;44389;51.578;5.456;2022-12-24T05:23:45;100797.56;;;8.62;100.00
58622;BME280;44389;51.578;5.456;2022-12-24T05:29:01;100784.63;;;8.59;100.00
58622;BME280;44389;51.578;5.456;2022-12-24T05:31:29;100792.09;;;8.52;100.00
58622;BME280;44389;51.578;5.456;2022-12-24T05:33:54;100798.84;;;8.50;100.00
58622;BME280;44389;51.578;5.456;2022-12-24T05:36:21;100801.28;;;8.46;100.00
58622;BME280;44389;51.578;5.456;2022-12-24T05:38:47;100799.56;;;8.46;100.00
58622;BME280;44389;51.578;5.456;2022-12-24T05:41:12;100801.31;;;8.47;100.00
58622;BME280;44389;51.578;5.456;2022-12-24T05:43:37;100807.28;;;8.46;100.00
58622;BME280;44389;51.578;5.456;2022-12-24T05:46:05;100815.75;;;8.45;100.00
58622;BME280;44389;51.578;5.456;2022-12-24T05:48:31;100820.22;;;8.49;100.00
58622;BME280;44389;51.578;5.456;2022-12-24T05:50:56;100815.75;;;8.45;100.00
58622;BME280;44389;51.578;5.456;2022-12-24T05:53:22;100820.91;;;8.45;100.00
58622;BME280;44389;51.578;5.456;2022-12-24T05:55:47;100827.94;;;8.49;100.00
58622;BME280;44389;51.578;5.456;2022-12-24T05:58:13;100827.94;;;8.49;100.00
58622;BME280;44389;51.578;5.456;2022-12-24T06:00:38;100839.97;;;8.50;100.00
58622;BME280;44389;51.578;5.456;2022-12-24T06:03:04;100840.19;;;8.56;100.00
58622;BME280;44389;51.578;5.456;2022-12-24T06:05:30;100835.91;;;8.57;100.00
58622;BME280;44389;51.578;5.456;2022-12-24T06:07:55;100845.34;;;8.56;100.00
58622;BME280;44389;51.578;5.456;2022-12-24T06:10:21;100851.28;;;8.55;100.00
58622;BME280;44389;51.578;5.456;2022-12-24T06:12:46;100849.66;;;8.57;100.00
58622;BME280;44389;51.578;5.456;2022-12-24T06:15:11;100839.53;;;8.62;100.00
58622;BME280;44389;51.578;5.456;2022-12-24T06:17:37;100845.56;;;8.63;100.00
58622;BME280;44389;51.578;5.456;2022-12-24T06:20:03;100850.72;;;8.63;100.00
58622;BME280;44389;51.578;5.456;2022-12-24T06:22:28;100845.56;;;8.63;100.00
58622;BME280;44389;51.578;5.456;2022-12-24T06:24:54;100840.38;;;8.61;100.00
58622;BME280;44389;51.578;5.456;2022-12-24T06:27:19;100852.22;;;8.57;100.00
58622;BME280;44389;51.578;5.456;2022-12-24T06:29:44;100852.19;;;8.56;100.00
58622;BME280;44389;51.578;5.456;2022-12-24T06:32:10;100854.59;;;8.53;100.00
58622;BME280;44389;51.578;5.456;2022-12-24T06:34:35;100850.22;;;8.50;100.00
58622;BME280;44389;51.578;5.456;2022-12-24T06:37:00;100868.09;;;8.47;100.00
58622;BME280;44389;51.578;5.456;2022-12-24T06:39:26;100871.47;;;8.46;100.00
58622;BME280;44389;51.578;5.456;2022-12-24T06:41:52;100872.97;;;8.41;100.00
58622;BME280;44389;51.578;5.456;2022-12-24T06:44:17;100881.69;;;8.45;100.00
58622;BME280;44389;51.578;5.456;2022-12-24T06:46:42;100878.09;;;8.41;100.00
58622;BME280;44389;51.578;5.456;2022-12-24T06:49:08;100877.16;;;8.39;100.00
58622;BME280;44389;51.578;5.456;2022-12-24T06:51:33;100880.44;;;8.35;100.00
58622;BME280;44389;51.578;5.456;2022-12-24T06:53:58;100885.69;;;8.38;100.00
58622;BME280;44389;51.578;5.456;2022-12-24T06:56:23;100883.13;;;8.38;100.00
58622;BME280;44389;51.578;5.456;2022-12-24T06:58:49;100877.09;;;8.37;100.00
58622;BME280;44389;51.578;5.456;2022-12-24T07:01:16;100884.69;;;8.34;100.00
58622;BME280;44389;51.578;5.456;2022-12-24T07:03:41;100890.66;;;8.33;100.00
58622;BME280;44389;51.578;5.456;2022-12-24T07:06:14;100889.69;;;8.31;100.00
58622;BME280;44389;51.578;5.456;2022-12-24T07:08:40;100891.44;;;8.32;100.00
58622;BME280;44389;51.578;5.456;2022-12-24T07:11:05;100893.16;;;8.32;100.00
58622;BME280;44389;51.578;5.456;2022-12-24T07:13:31;100902.38;;;8.27;100.00
58622;BME280;44389;51.578;5.456;2022-12-24T07:16:02;100904.94;;;8.27;100.00
58622;BME280;44389;51.578;5.456;2022-12-24T07:18:28;100904.88;;;8.25;100.00
58622;BME280;44389;51.578;5.456;2022-12-24T07:20:53;100909.13;;;8.24;100.00
58622;BME280;44389;51.578;5.456;2022-12-24T07:23:19;100908.00;;;8.18;100.00
58622;BME280;44389;51.578;5.456;2022-12-24T07:25:44;100911.53;;;8.20;100.00
58622;BME280;44389;51.578;5.456;2022-12-24T07:28:09;100908.75;;;8.15;100.00
58622;BME280;44389;51.578;5.456;2022-12-24T07:30:35;100904.44;;;8.14;100.00
58622;BME280;44389;51.578;5.456;2022-12-24T07:33:00;100920.53;;;8.10;100.00
58622;BME280;44389;51.578;5.456;2022-12-24T07:35:26;100929.03;;;8.09;100.00
58622;BME280;44389;51.578;5.456;2022-12-24T07:37:51;100927.28;;;8.08;100.00
58622;BME280;44389;51.578;5.456;2022-12-24T07:40:16;100933.25;;;8.07;100.00
58622;BME280;44389;51.578;5.456;2022-12-24T07:42:41;100930.50;;;8.02;100.00
58622;BME280;44389;51.578;5.456;2022-12-24T07:45:07;100940.69;;;8.01;100.00
58622;BME280;44389;51.578;5.456;2022-12-24T07:47:33;100940.50;;;7.96;100.00
58622;BME280;44389;51.578;5.456;2022-12-24T07:49:59;100936.31;;;7.98;100.00
58622;BME280;44389;51.578;5.456;2022-12-24T07:52:24;100948.34;;;7.99;100.00
58622;BME280;44389;51.578;5.456;2022-12-24T07:54:49;100945.13;;;8.05;100.00
58622;BME280;44389;51.578;5.456;2022-12-24T07:57:15;100952.72;;;8.02;100.00
58622;BME280;44389;51.578;5.456;2022-12-24T07:59:40;100952.72;;;8.02;100.00
58622;BME280;44389;51.578;5.456;2022-12-24T08:02:05;100968.03;;;8.00;100.00
58622;BME280;44389;51.578;5.456;2022-12-24T08:04:31;100978.25;;;7.99;100.00
58622;BME280;44389;51.578;5.456;2022-12-24T08:07:00;100976.63;;;8.01;100.00
58622;BME280;44389;51.578;5.456;2022-12-24T08:09:25;100987.00;;;8.04;100.00
58622;BME280;44389;51.578;5.456;2022-12-24T08:11:50;100971.81;;;8.08;100.00
58622;BME280;44389;51.578;5.456;2022-12-24T08:14:16;100987.28;;;8.10;100.00
58622;BME280;44389;51.578;5.456;2022-12-24T08:16:41;100994.03;;;8.08;100.00
58622;BME280;44389;51.578;5.456;2022-12-24T08:19:06;101002.69;;;8.10;100.00
58622;BME280;44389;51.578;5.456;2022-12-24T08:21:31;101005.19;;;8.08;100.00
58622;BME280;44389;51.578;5.456;2022-12-24T08:23:57;101005.03;;;8.05;100.00
58622;BME280;44389;51.578;5.456;2022-12-24T08:26:22;101018.03;;;8.08;100.00
58622;BME280;44389;51.578;5.456;2022-12-24T08:28:47;101014.56;;;8.08;100.00
58622;BME280;44389;51.578;5.456;2022-12-24T08:31:12;101020.72;;;8.12;100.00
58622;BME280;44389;51.578;5.456;2022-12-24T08:33:39;101018.94;;;8.11;100.00
58622;BME280;44389;51.578;5.456;2022-12-24T08:36:05;101021.72;;;8.15;100.00
58622;BME280;44389;51.578;5.456;2022-12-24T08:38:30;101019.22;;;8.17;100.00
58622;BME280;44389;51.578;5.456;2022-12-24T08:40:55;101024.28;;;8.15;100.00
58622;BME280;44389;51.578;5.456;2022-12-24T08:43:21;101026.06;;;8.16;100.00
58622;BME280;44389;51.578;5.456;2022-12-24T08:45:47;101029.47;;;8.17;100.00
58622;BME280;44389;51.578;5.456;2022-12-24T08:48:16;101035.50;;;8.17;100.00
58622;BME280;44389;51.578;5.456;2022-12-24T08:50:42;101036.50;;;8.21;100.00
58622;BME280;44389;51.578;5.456;2022-12-24T08:53:08;101035.84;;;8.25;100.00
58622;BME280;44389;51.578;5.456;2022-12-24T08:55:34;101040.22;;;8.28;100.00
58622;BME280;44389;51.578;5.456;2022-12-24T08:57:59;101047.09;;;8.29;100.00
58622;BME280;44389;51.578;5.456;2022-12-24T09:00:25;101050.56;;;8.29;100.00
58622;BME280;44389;51.578;5.456;2022-12-24T09:02:51;101053.28;;;8.34;100.00
58622;BME280;44389;51.578;5.456;2022-12-24T09:05:16;101054.19;;;8.34;100.00
58622;BME280;44389;51.578;5.456;2022-12-24T09:07:42;101045.78;;;8.38;100.00
58622;BME280;44389;51.578;5.456;2022-12-24T09:10:08;101057.78;;;8.38;100.00
58622;BME280;44389;51.578;5.456;2022-12-24T09:12:33;101058.56;;;8.37;100.00
58622;BME280;44389;51.578;5.456;2022-12-24T09:14:58;101072.34;;;8.39;100.00
58622;BME280;44389;51.578;5.456;2022-12-24T09:17:24;101075.88;;;8.41;100.00
58622;BME280;44389;51.578;5.456;2022-12-24T09:19:49;101073.41;;;8.44;100.00
58622;BME280;44389;51.578;5.456;2022-12-24T09:22:15;101079.66;;;8.49;100.00
58622;BME280;44389;51.578;5.456;2022-12-24T09:24:40;101089.31;;;8.55;100.00
58622;BME280;44389;51.578;5.456;2022-12-24T09:27:06;101097.28;;;8.61;100.00
58622;BME280;44389;51.578;5.456;2022-12-24T09:29:31;101108.69;;;8.68;100.00
58622;BME280;44389;51.578;5.456;2022-12-24T09:31:56;101112.34;;;8.73;100.00
58622;BME280;44389;51.578;5.456;2022-12-24T09:34:23;101105.00;;;8.82;100.00
58622;BME280;44389;51.578;5.456;2022-12-24T09:36:48;101114.94;;;8.96;100.00
58622;BME280;44389;51.578;5.456;2022-12-24T09:39:14;101116.78;;;8.98;100.00
58622;BME280;44389;51.578;5.456;2022-12-24T09:42:02;101116.91;;;9.01;100.00
58622;BME280;44389;51.578;5.456;2022-12-24T09:44:47;101115.22;;;9.02;100.00
58622;BME280;44389;51.578;5.456;2022-12-24T09:47:37;101123.16;;;9.08;100.00
58622;BME280;44389;51.578;5.456;2022-12-24T09:50:17;101124.84;;;9.07;100.00
58622;BME280;44389;51.578;5.456;2022-12-24T09:52:47;101135.03;;;9.04;100.00
58622;BME280;44389;51.578;5.456;2022-12-24T09:55:22;101122.81;;;8.99;100.00
58622;BME280;44389;51.578;5.456;2022-12-24T09:57:52;101130.25;;;8.93;100.00
58622;BME280;44389;51.578;5.456;2022-12-24T10:00:22;101134.44;;;8.90;100.00
58622;BME280;44389;51.578;5.456;2022-12-24T10:02:48;101135.19;;;8.88;100.00
58622;BME280;44389;51.578;5.456;2022-12-24T10:05:14;101148.06;;;8.88;100.00
58622;BME280;44389;51.578;5.456;2022-12-24T10:07:45;101151.75;;;8.95;100.00
58622;BME280;44389;51.578;5.456;2022-12-24T10:12:54;101156.16;;;9.18;100.00
58622;BME280;44389;51.578;5.456;2022-12-24T10:15:29;101147.03;;;9.27;100.00
58622;BME280;44389;51.578;5.456;2022-12-24T10:19:11;101158.44;;;9.33;100.00
58622;BME280;44389;51.578;5.456;2022-12-24T10:21:30;101144.47;;;9.27;100.00
58622;BME280;44389;51.578;5.456;2022-12-24T10:24:09;101145.16;;;9.22;100.00
58622;BME280;44389;51.578;5.456;2022-12-24T10:26:38;101135.59;;;9.18;100.00
58622;BME280;44389;51.578;5.456;2022-12-24T10:29:16;101132.06;;;9.16;100.00
58622;BME280;44389;51.578;5.456;2022-12-24T10:31:52;101137.56;;;9.26;100.00
58622;BME280;44389;51.578;5.456;2022-12-24T10:34:22;101139.47;;;9.30;100.00
58622;BME280;44389;51.578;5.456;2022-12-24T10:36:47;101130.03;;;9.30;100.00
58622;BME280;44389;51.578;5.456;2022-12-24T10:39:17;101142.03;;;9.30;100.00
58622;BME280;44389;51.578;5.456;2022-12-24T10:41:45;101152.53;;;9.36;100.00
58622;BME280;44389;51.578;5.456;2022-12-24T10:44:16;101153.44;;;9.36;100.00
58622;BME280;44389;51.578;5.456;2022-12-24T10:46:43;101157.78;;;9.37;100.00
58622;BME280;44389;51.578;5.456;2022-12-24T10:49:16;101151.72;;;9.37;100.00
58622;BME280;44389;51.578;5.456;2022-12-24T10:51:50;101146.59;;;9.37;100.00
58622;BME280;44389;51.578;5.456;2022-12-24T10:54:23;101150.22;;;9.42;100.00
58622;BME280;44389;51.578;5.456;2022-12-24T10:56:51;101145.22;;;9.45;100.00
58622;BME280;44389;51.578;5.456;2022-12-24T11:01:54;101142.97;;;9.77;100.00
58622;BME280;44389;51.578;5.456;2022-12-24T11:04:22;101154.25;;;9.81;100.00
58622;BME280;44389;51.578;5.456;2022-12-24T11:07:10;101149.28;;;9.85;100.00
58622;BME280;44389;51.578;5.456;2022-12-24T11:09:54;101162.78;;;9.80;100.00
58622;BME280;44389;51.578;5.456;2022-12-24T11:12:22;101153.16;;;9.74;100.00
58622;BME280;44389;51.578;5.456;2022-12-24T11:15:02;101163.44;;;9.74;100.00
58622;BME280;44389;51.578;5.456;2022-12-24T11:17:28;101155.03;;;9.78;100.00
58622;BME280;44389;51.578;5.456;2022-12-24T11:19:53;101153.50;;;9.83;100.00
58622;BME280;44389;51.578;5.456;2022-12-24T11:22:25;101157.25;;;9.92;100.00
58622;BME280;44389;51.578;5.456;2022-12-24T11:25:18;101164.38;;;9.99;100.00
58622;BME280;44389;51.578;5.456;2022-12-24T11:27:46;101164.38;;;9.99;100.00
58622;BME280;44389;51.578;5.456;2022-12-24T11:32:44;101166.06;;;9.98;100.00
58622;BME280;44389;51.578;5.456;2022-12-24T11:35:22;101169.66;;;10.02;100.00
58622;BME280;44389;51.578;5.456;2022-12-24T11:40:33;101173.59;;;10.16;100.00
58622;BME280;44389;51.578;5.456;2022-12-24T11:43:00;101173.59;;;10.16;100.00
58622;BME280;44389;51.578;5.456;2022-12-24T11:45:28;101172.72;;;10.16;100.00
58622;BME280;44389;51.578;5.456;2022-12-24T11:47:55;101166.19;;;10.01;100.00
58622;BME280;44389;51.578;5.456;2022-12-24T11:52:54;101177.09;;;9.94;100.00
58622;BME280;44389;51.578;5.456;2022-12-24T11:55:27;101171.03;;;9.94;100.00
58622;BME280;44389;51.578;5.456;2022-12-24T11:58:04;101169.50;;;9.99;100.00
58622;BME280;44389;51.578;5.456;2022-12-24T12:00:35;101176.59;;;10.04;100.00
58622;BME280;44389;51.578;5.456;2022-12-24T12:03:01;101177.44;;;10.03;100.00
58622;BME280;44389;51.578;5.456;2022-12-24T12:05:31;101172.00;;;9.96;100.00
58622;BME280;44389;51.578;5.456;2022-12-24T12:08:06;101171.03;;;9.94;100.00
58622;BME280;44389;51.578;5.456;2022-12-24T12:10:36;101174.44;;;9.93;100.00
58622;BME280;44389;51.578;5.456;2022-12-24T12:13:12;101175.31;;;9.93;100.00
58622;BME280;44389;51.578;5.456;2022-12-24T12:15:42;101173.63;;;9.94;100.00
58622;BME280;44389;51.578;5.456;2022-12-24T12:18:10;101179.72;;;9.96;100.00
58622;BME280;44389;51.578;5.456;2022-12-24T12:20:40;101177.84;;;9.92;100.00
58622;BME280;44389;51.578;5.456;2022-12-24T12:23:15;101181.34;;;9.94;100.00
58622;BME280;44389;51.578;5.456;2022-12-24T12:26:00;101187.44;;;9.96;100.00
58622;BME280;44389;51.578;5.456;2022-12-24T12:28:37;101189.00;;;9.92;100.00
58622;BME280;44389;51.578;5.456;2022-12-24T12:34:14;101194.63;;;10.04;100.00
58622;BME280;44389;51.578;5.456;2022-12-24T12:36:49;101195.75;;;10.11;100.00
58622;BME280;44389;51.578;5.456;2022-12-24T12:39:16;101196.72;;;10.15;100.00
58622;BME280;44389;51.578;5.456;2022-12-24T12:41:53;101200.78;;;10.32;100.00
58622;BME280;44389;51.578;5.456;2022-12-24T12:52:29;101208.97;;;10.43;97.47
58622;BME280;44389;51.578;5.456;2022-12-24T12:57:41;101205.94;;;10.32;97.95
58622;BME280;44389;51.578;5.456;2022-12-24T13:00:12;101207.19;;;10.19;98.01
58622;BME280;44389;51.578;5.456;2022-12-24T13:11:11;101225.53;;;9.82;99.06
58622;BME280;44389;51.578;5.456;2022-12-24T13:13:50;101241.53;;;9.75;99.99
58622;BME280;44389;51.578;5.456;2022-12-24T13:19:23;101228.31;;;9.65;100.00
58622;BME280;44389;51.578;5.456;2022-12-24T13:21:55;101222.34;;;9.66;100.00
58622;BME280;44389;51.578;5.456;2022-12-24T13:24:26;101227.50;;;9.66;100.00
58622;BME280;44389;51.578;5.456;2022-12-24T13:27:18;101226.50;;;9.63;100.00
58622;BME280;44389;51.578;5.456;2022-12-24T13:29:58;101228.97;;;9.60;99.98
58622;BME280;44389;51.578;5.456;2022-12-24T13:34:55;101241.53;;;9.52;100.00
58622;BME280;44389;51.578;5.456;2022-12-24T13:47:53;101238.31;;;9.58;100.00
58622;BME280;44389;51.578;5.456;2022-12-24T13:50:25;101246.16;;;9.61;99.15
58622;BME280;44389;51.578;5.456;2022-12-24T13:52:53;101247.03;;;9.61;99.59
58622;BME280;44389;51.578;5.456;2022-12-24T13:55:19;101241.81;;;9.60;99.39
58622;BME280;44389;51.578;5.456;2022-12-24T13:57:56;101251.97;;;9.56;100.00
58622;BME280;44389;51.578;5.456;2022-12-24T14:00:43;101251.91;;;9.55;100.00
58622;BME280;44389;51.578;5.456;2022-12-24T14:03:23;101254.25;;;9.49;100.00
58622;BME280;44389;51.578;5.456;2022-12-24T14:05:54;101259.22;;;9.44;100.00
58622;BME280;44389;51.578;5.456;2022-12-24T14:08:26;101267.06;;;9.47;100.00
58622;BME280;44389;51.578;5.456;2022-12-24T14:11:05;101262.03;;;9.50;100.00
58622;BME280;44389;51.578;5.456;2022-12-24T14:16:14;101262.03;;;9.50;100.00